sensor_id;sensor_type;location;lat;lon;timestamp;P1;durP1;ratioP1;P2;durP2;ratioP2
59273;SDS011;45044;41.572;24.730;2024-03-23T00:53:36;11.67;;;5.90;;
59273;SDS011;45044;41.572;24.730;2024-03-23T00:56:02;11.30;;;6.03;;
59273;SDS011;45044;41.572;24.730;2024-03-23T00:58:29;9.73;;;5.27;;
59273;SDS011;45044;41.572;24.730;2024-03-23T01:00:54;10.50;;;5.10;;
59273;SDS011;45044;41.572;24.730;2024-03-23T01:03:20;18.83;;;8.87;;
59273;SDS011;45044;41.572;24.730;2024-03-23T01:05:46;32.80;;;15.73;;
59273;SDS011;45044;41.572;24.730;2024-03-23T01:08:11;28.77;;;12.57;;
59273;SDS011;45044;41.572;24.730;2024-03-23T01:10:37;14.47;;;6.53;;
59273;SDS011;45044;41.572;24.730;2024-03-23T01:13:03;12.77;;;6.50;;
59273;SDS011;45044;41.572;24.730;2024-03-23T01:15:29;13.13;;;7.07;;
59273;SDS011;45044;41.572;24.730;2024-03-23T01:17:54;12.97;;;6.47;;
59273;SDS011;45044;41.572;24.730;2024-03-23T01:20:20;16.97;;;7.90;;
59273;SDS011;45044;41.572;24.730;2024-03-23T01:22:46;12.77;;;7.17;;
59273;SDS011;45044;41.572;24.730;2024-03-23T01:25:11;12.67;;;6.63;;
59273;SDS011;45044;41.572;24.730;2024-03-23T01:27:37;13.47;;;6.60;;
59273;SDS011;45044;41.572;24.730;2024-03-23T01:30:03;10.60;;;5.50;;
59273;SDS011;45044;41.572;24.730;2024-03-23T01:32:29;9.00;;;5.00;;
59273;SDS011;45044;41.572;24.730;2024-03-23T01:34:54;9.97;;;5.17;;
59273;SDS011;45044;41.572;24.730;2024-03-23T01:37:20;6.77;;;3.67;;
59273;SDS011;45044;41.572;24.730;2024-03-23T01:39:46;8.70;;;4.07;;
59273;SDS011;45044;41.572;24.730;2024-03-23T01:42:12;10.37;;;5.07;;
59273;SDS011;45044;41.572;24.730;2024-03-23T01:44:38;29.60;;;12.40;;
59273;SDS011;45044;41.572;24.730;2024-03-23T01:47:03;39.27;;;15.87;;
59273;SDS011;45044;41.572;24.730;2024-03-23T01:49:29;54.97;;;19.53;;
59273;SDS011;45044;41.572;24.730;2024-03-23T01:51:56;45.80;;;18.03;;
59273;SDS011;45044;41.572;24.730;2024-03-23T01:54:21;27.87;;;10.90;;
59273;SDS011;45044;41.572;24.730;2024-03-23T01:56:48;21.03;;;9.33;;
59273;SDS011;45044;41.572;24.730;2024-03-23T01:59:14;67.03;;;23.33;;
59273;SDS011;45044;41.572;24.730;2024-03-23T02:01:45;30.70;;;12.67;;
59273;SDS011;45044;41.572;24.730;2024-03-23T02:04:11;21.20;;;8.57;;
59273;SDS011;45044;41.572;24.730;2024-03-23T02:06:37;11.23;;;5.03;;
59273;SDS011;45044;41.572;24.730;2024-03-23T02:09:03;10.57;;;5.00;;
59273;SDS011;45044;41.572;24.730;2024-03-23T02:11:29;20.73;;;8.70;;
59273;SDS011;45044;41.572;24.730;2024-03-23T02:13:54;17.70;;;7.70;;
59273;SDS011;45044;41.572;24.730;2024-03-23T02:16:20;17.33;;;7.23;;
59273;SDS011;45044;41.572;24.730;2024-03-23T02:18:46;22.03;;;9.80;;
59273;SDS011;45044;41.572;24.730;2024-03-23T02:21:11;20.33;;;8.97;;
59273;SDS011;45044;41.572;24.730;2024-03-23T02:23:37;20.20;;;8.40;;
59273;SDS011;45044;41.572;24.730;2024-03-23T02:26:03;17.23;;;6.73;;
59273;SDS011;45044;41.572;24.730;2024-03-23T02:28:28;62.50;;;22.70;;
59273;SDS011;45044;41.572;24.730;2024-03-23T02:30:54;15.93;;;7.57;;
59273;SDS011;45044;41.572;24.730;2024-03-23T02:33:20;13.77;;;6.60;;
59273;SDS011;45044;41.572;24.730;2024-03-23T02:35:46;10.90;;;6.10;;
59273;SDS011;45044;41.572;24.730;2024-03-23T02:38:12;12.60;;;7.47;;
59273;SDS011;45044;41.572;24.730;2024-03-23T02:40:38;12.07;;;6.20;;
59273;SDS011;45044;41.572;24.730;2024-03-23T02:43:04;10.50;;;5.30;;
59273;SDS011;45044;41.572;24.730;2024-03-23T02:45:30;10.10;;;6.57;;
59273;SDS011;45044;41.572;24.730;2024-03-23T02:47:56;16.00;;;8.70;;
59273;SDS011;45044;41.572;24.730;2024-03-23T02:50:22;14.60;;;9.43;;
59273;SDS011;45044;41.572;24.730;2024-03-23T02:52:49;23.20;;;10.80;;
59273;SDS011;45044;41.572;24.730;2024-03-23T02:55:14;20.43;;;10.20;;
59273;SDS011;45044;41.572;24.730;2024-03-23T02:57:41;29.57;;;13.20;;
59273;SDS011;45044;41.572;24.730;2024-03-23T03:00:07;57.90;;;23.90;;
59273;SDS011;45044;41.572;24.730;2024-03-23T03:02:34;66.10;;;25.70;;
59273;SDS011;45044;41.572;24.730;2024-03-23T03:05:01;54.43;;;22.77;;
59273;SDS011;45044;41.572;24.730;2024-03-23T03:07:27;41.13;;;16.10;;
59273;SDS011;45044;41.572;24.730;2024-03-23T03:09:52;62.57;;;24.37;;
59273;SDS011;45044;41.572;24.730;2024-03-23T03:12:18;26.20;;;10.67;;
59273;SDS011;45044;41.572;24.730;2024-03-23T03:14:44;46.23;;;17.47;;
59273;SDS011;45044;41.572;24.730;2024-03-23T03:17:09;76.63;;;27.30;;
59273;SDS011;45044;41.572;24.730;2024-03-23T03:19:36;33.37;;;11.73;;
59273;SDS011;45044;41.572;24.730;2024-03-23T03:22:02;36.63;;;13.50;;
59273;SDS011;45044;41.572;24.730;2024-03-23T03:24:29;36.40;;;11.73;;
59273;SDS011;45044;41.572;24.730;2024-03-23T03:26:55;24.87;;;12.60;;
59273;SDS011;45044;41.572;24.730;2024-03-23T03:29:21;28.73;;;12.37;;
59273;SDS011;45044;41.572;24.730;2024-03-23T03:31:47;20.40;;;10.27;;
59273;SDS011;45044;41.572;24.730;2024-03-23T03:34:13;21.30;;;8.37;;
59273;SDS011;45044;41.572;24.730;2024-03-23T03:36:39;23.27;;;10.57;;
59273;SDS011;45044;41.572;24.730;2024-03-23T03:39:04;22.03;;;10.50;;
59273;SDS011;45044;41.572;24.730;2024-03-23T03:41:31;69.00;;;22.47;;
59273;SDS011;45044;41.572;24.730;2024-03-23T03:43:57;30.83;;;13.33;;
59273;SDS011;45044;41.572;24.730;2024-03-23T03:46:37;24.67;;;10.77;;
59273;SDS011;45044;41.572;24.730;2024-03-23T03:49:02;36.97;;;12.30;;
59273;SDS011;45044;41.572;24.730;2024-03-23T03:51:28;13.47;;;6.80;;
59273;SDS011;45044;41.572;24.730;2024-03-23T03:53:55;13.80;;;5.93;;
59273;SDS011;45044;41.572;24.730;2024-03-23T03:56:20;21.97;;;8.43;;
59273;SDS011;45044;41.572;24.730;2024-03-23T03:58:47;14.37;;;7.67;;
59273;SDS011;45044;41.572;24.730;2024-03-23T04:01:13;18.23;;;8.37;;
59273;SDS011;45044;41.572;24.730;2024-03-23T04:03:39;16.50;;;7.47;;
59273;SDS011;45044;41.572;24.730;2024-03-23T04:06:09;17.93;;;9.33;;
59273;SDS011;45044;41.572;24.730;2024-03-23T04:08:35;17.90;;;8.63;;
59273;SDS011;45044;41.572;24.730;2024-03-23T04:11:01;18.57;;;9.20;;
59273;SDS011;45044;41.572;24.730;2024-03-23T04:13:27;25.77;;;11.17;;
59273;SDS011;45044;41.572;24.730;2024-03-23T04:15:56;39.67;;;14.00;;
59273;SDS011;45044;41.572;24.730;2024-03-23T04:18:22;20.90;;;8.43;;
59273;SDS011;45044;41.572;24.730;2024-03-23T04:20:48;17.67;;;8.27;;
59273;SDS011;45044;41.572;24.730;2024-03-23T04:23:14;13.43;;;6.60;;
59273;SDS011;45044;41.572;24.730;2024-03-23T04:25:41;12.63;;;5.93;;
59273;SDS011;45044;41.572;24.730;2024-03-23T04:28:07;14.73;;;6.07;;
59273;SDS011;45044;41.572;24.730;2024-03-23T04:30:33;25.80;;;10.73;;
59273;SDS011;45044;41.572;24.730;2024-03-23T04:32:59;43.87;;;15.60;;
59273;SDS011;45044;41.572;24.730;2024-03-23T04:35:26;51.53;;;20.97;;
59273;SDS011;45044;41.572;24.730;2024-03-23T04:37:52;44.60;;;18.30;;
59273;SDS011;45044;41.572;24.730;2024-03-23T04:40:19;36.60;;;16.53;;
59273;SDS011;45044;41.572;24.730;2024-03-23T04:42:44;30.47;;;13.50;;
59273;SDS011;45044;41.572;24.730;2024-03-23T04:45:10;21.50;;;11.97;;
59273;SDS011;45044;41.572;24.730;2024-03-23T04:47:37;29.90;;;13.27;;
59273;SDS011;45044;41.572;24.730;2024-03-23T04:50:03;28.83;;;14.10;;
59273;SDS011;45044;41.572;24.730;2024-03-23T04:52:30;31.73;;;18.27;;
59273;SDS011;45044;41.572;24.730;2024-03-23T04:54:56;33.50;;;18.50;;
59273;SDS011;45044;41.572;24.730;2024-03-23T04:57:22;36.83;;;19.07;;
59273;SDS011;45044;41.572;24.730;2024-03-23T04:59:47;33.20;;;18.63;;
59273;SDS011;45044;41.572;24.730;2024-03-23T05:02:14;31.53;;;18.93;;
59273;SDS011;45044;41.572;24.730;2024-03-23T05:04:40;34.97;;;17.37;;
59273;SDS011;45044;41.572;24.730;2024-03-23T05:07:06;33.43;;;17.63;;
59273;SDS011;45044;41.572;24.730;2024-03-23T05:09:32;33.87;;;17.23;;
59273;SDS011;45044;41.572;24.730;2024-03-23T05:12:01;37.73;;;19.93;;
59273;SDS011;45044;41.572;24.730;2024-03-23T05:14:28;30.57;;;18.00;;
59273;SDS011;45044;41.572;24.730;2024-03-23T05:16:54;38.03;;;19.73;;
59273;SDS011;45044;41.572;24.730;2024-03-23T05:19:21;43.23;;;20.33;;
59273;SDS011;45044;41.572;24.730;2024-03-23T05:21:46;45.17;;;22.57;;
59273;SDS011;45044;41.572;24.730;2024-03-23T05:24:13;52.90;;;23.43;;
59273;SDS011;45044;41.572;24.730;2024-03-23T05:26:39;41.83;;;21.30;;
59273;SDS011;45044;41.572;24.730;2024-03-23T05:29:04;45.07;;;23.10;;
59273;SDS011;45044;41.572;24.730;2024-03-23T05:31:32;48.57;;;24.27;;
59273;SDS011;45044;41.572;24.730;2024-03-23T05:33:58;48.13;;;25.47;;
59273;SDS011;45044;41.572;24.730;2024-03-23T05:36:23;45.20;;;25.00;;
59273;SDS011;45044;41.572;24.730;2024-03-23T05:38:50;41.07;;;25.63;;
59273;SDS011;45044;41.572;24.730;2024-03-23T05:41:16;44.00;;;25.77;;
59273;SDS011;45044;41.572;24.730;2024-03-23T05:43:41;45.07;;;28.10;;
59273;SDS011;45044;41.572;24.730;2024-03-23T05:46:07;50.47;;;30.48;;
59273;SDS011;45044;41.572;24.730;2024-03-23T05:48:34;49.60;;;32.72;;
59273;SDS011;45044;41.572;24.730;2024-03-23T05:51:00;46.30;;;30.30;;
59273;SDS011;45044;41.572;24.730;2024-03-23T05:53:26;43.42;;;31.30;;
59273;SDS011;45044;41.572;24.730;2024-03-23T05:55:51;46.05;;;31.50;;
59273;SDS011;45044;41.572;24.730;2024-03-23T05:58:26;43.55;;;30.20;;
59273;SDS011;45044;41.572;24.730;2024-03-23T06:00:56;43.50;;;29.45;;
59273;SDS011;45044;41.572;24.730;2024-03-23T06:03:24;42.03;;;29.92;;
59273;SDS011;45044;41.572;24.730;2024-03-23T06:05:51;38.33;;;27.60;;
59273;SDS011;45044;41.572;24.730;2024-03-23T06:08:16;33.33;;;23.50;;
59273;SDS011;45044;41.572;24.730;2024-03-23T06:10:42;29.95;;;21.95;;
59273;SDS011;45044;41.572;24.730;2024-03-23T06:13:08;34.83;;;22.27;;
59273;SDS011;45044;41.572;24.730;2024-03-23T06:15:34;26.27;;;19.52;;
59273;SDS011;45044;41.572;24.730;2024-03-23T06:18:03;22.90;;;16.05;;
59273;SDS011;45044;41.572;24.730;2024-03-23T06:20:33;22.02;;;14.32;;
59273;SDS011;45044;41.572;24.730;2024-03-23T06:23:00;22.15;;;15.63;;
59273;SDS011;45044;41.572;24.730;2024-03-23T06:25:26;21.77;;;15.57;;
59273;SDS011;45044;41.572;24.730;2024-03-23T06:27:52;22.27;;;14.75;;
59273;SDS011;45044;41.572;24.730;2024-03-23T06:30:18;19.42;;;12.38;;
59273;SDS011;45044;41.572;24.730;2024-03-23T06:32:44;16.15;;;10.65;;
59273;SDS011;45044;41.572;24.730;2024-03-23T06:35:09;19.95;;;14.75;;
59273;SDS011;45044;41.572;24.730;2024-03-23T06:37:35;22.27;;;16.33;;
59273;SDS011;45044;41.572;24.730;2024-03-23T06:40:02;18.20;;;15.20;;
59273;SDS011;45044;41.572;24.730;2024-03-23T06:42:31;21.20;;;15.65;;
59273;SDS011;45044;41.572;24.730;2024-03-23T06:44:57;21.08;;;15.68;;
59273;SDS011;45044;41.572;24.730;2024-03-23T06:47:23;21.50;;;16.67;;
59273;SDS011;45044;41.572;24.730;2024-03-23T06:49:48;23.17;;;17.05;;
59273;SDS011;45044;41.572;24.730;2024-03-23T06:52:14;27.65;;;20.65;;
59273;SDS011;45044;41.572;24.730;2024-03-23T06:54:40;31.40;;;21.30;;
59273;SDS011;45044;41.572;24.730;2024-03-23T06:57:05;23.83;;;17.60;;
59273;SDS011;45044;41.572;24.730;2024-03-23T06:59:31;22.30;;;16.90;;
59273;SDS011;45044;41.572;24.730;2024-03-23T07:01:56;18.55;;;12.63;;
59273;SDS011;45044;41.572;24.730;2024-03-23T07:04:22;19.20;;;13.43;;
59273;SDS011;45044;41.572;24.730;2024-03-23T07:06:48;18.08;;;14.38;;
59273;SDS011;45044;41.572;24.730;2024-03-23T07:09:13;17.85;;;13.23;;
59273;SDS011;45044;41.572;24.730;2024-03-23T07:11:39;16.45;;;13.18;;
59273;SDS011;45044;41.572;24.730;2024-03-23T07:14:05;19.52;;;13.60;;
59273;SDS011;45044;41.572;24.730;2024-03-23T07:16:31;16.52;;;11.70;;
59273;SDS011;45044;41.572;24.730;2024-03-23T07:18:56;13.95;;;10.63;;
59273;SDS011;45044;41.572;24.730;2024-03-23T07:21:22;15.65;;;11.18;;
59273;SDS011;45044;41.572;24.730;2024-03-23T07:23:48;14.35;;;10.00;;
59273;SDS011;45044;41.572;24.730;2024-03-23T07:26:13;15.20;;;11.10;;
59273;SDS011;45044;41.572;24.730;2024-03-23T07:28:40;10.77;;;7.43;;
59273;SDS011;45044;41.572;24.730;2024-03-23T07:31:12;10.38;;;6.70;;
59273;SDS011;45044;41.572;24.730;2024-03-23T07:33:43;10.48;;;6.95;;
59273;SDS011;45044;41.572;24.730;2024-03-23T07:36:11;9.60;;;6.57;;
59273;SDS011;45044;41.572;24.730;2024-03-23T07:38:37;8.70;;;5.78;;
59273;SDS011;45044;41.572;24.730;2024-03-23T07:41:05;7.63;;;4.38;;
59273;SDS011;45044;41.572;24.730;2024-03-23T07:43:35;7.60;;;4.53;;
59273;SDS011;45044;41.572;24.730;2024-03-23T07:46:02;9.45;;;4.70;;
59273;SDS011;45044;41.572;24.730;2024-03-23T07:48:31;9.10;;;4.63;;
59273;SDS011;45044;41.572;24.730;2024-03-23T07:53:24;8.15;;;5.45;;
59273;SDS011;45044;41.572;24.730;2024-03-23T07:56:01;7.90;;;4.45;;
59273;SDS011;45044;41.572;24.730;2024-03-23T07:58:28;7.78;;;3.95;;
59273;SDS011;45044;41.572;24.730;2024-03-23T08:00:54;7.22;;;4.25;;
59273;SDS011;45044;41.572;24.730;2024-03-23T08:03:21;5.45;;;3.30;;
59273;SDS011;45044;41.572;24.730;2024-03-23T08:05:47;8.13;;;4.22;;
59273;SDS011;45044;41.572;24.730;2024-03-23T08:08:13;5.78;;;3.47;;
59273;SDS011;45044;41.572;24.730;2024-03-23T08:10:48;6.70;;;4.28;;
59273;SDS011;45044;41.572;24.730;2024-03-23T08:13:17;6.00;;;3.60;;
59273;SDS011;45044;41.572;24.730;2024-03-23T08:15:44;5.70;;;3.00;;
59273;SDS011;45044;41.572;24.730;2024-03-23T08:18:11;4.63;;;2.55;;
59273;SDS011;45044;41.572;24.730;2024-03-23T08:20:37;6.45;;;3.10;;
59273;SDS011;45044;41.572;24.730;2024-03-23T08:23:03;4.43;;;2.40;;
59273;SDS011;45044;41.572;24.730;2024-03-23T08:25:31;4.45;;;2.58;;
59273;SDS011;45044;41.572;24.730;2024-03-23T08:27:57;4.32;;;2.20;;
59273;SDS011;45044;41.572;24.730;2024-03-23T08:30:24;3.95;;;2.50;;
59273;SDS011;45044;41.572;24.730;2024-03-23T08:32:50;4.97;;;2.75;;
59273;SDS011;45044;41.572;24.730;2024-03-23T08:35:15;4.57;;;2.38;;
59273;SDS011;45044;41.572;24.730;2024-03-23T08:37:41;5.10;;;2.15;;
59273;SDS011;45044;41.572;24.730;2024-03-23T08:40:07;4.95;;;2.55;;
59273;SDS011;45044;41.572;24.730;2024-03-23T08:42:34;7.85;;;3.10;;
59273;SDS011;45044;41.572;24.730;2024-03-23T08:45:00;4.57;;;2.22;;
59273;SDS011;45044;41.572;24.730;2024-03-23T08:47:26;4.10;;;2.10;;
59273;SDS011;45044;41.572;24.730;2024-03-23T08:49:51;4.55;;;2.63;;
59273;SDS011;45044;41.572;24.730;2024-03-23T08:52:17;4.10;;;2.47;;
59273;SDS011;45044;41.572;24.730;2024-03-23T08:54:43;5.28;;;2.28;;
59273;SDS011;45044;41.572;24.730;2024-03-23T08:57:09;3.78;;;2.17;;
59273;SDS011;45044;41.572;24.730;2024-03-23T08:59:35;4.10;;;2.13;;
59273;SDS011;45044;41.572;24.730;2024-03-23T09:02:00;3.88;;;2.30;;
59273;SDS011;45044;41.572;24.730;2024-03-23T09:04:26;4.90;;;2.30;;
59273;SDS011;45044;41.572;24.730;2024-03-23T09:06:52;4.13;;;2.35;;
59273;SDS011;45044;41.572;24.730;2024-03-23T09:09:17;4.22;;;1.98;;
59273;SDS011;45044;41.572;24.730;2024-03-23T09:11:45;3.65;;;2.20;;
59273;SDS011;45044;41.572;24.730;2024-03-23T09:14:11;4.47;;;2.30;;
59273;SDS011;45044;41.572;24.730;2024-03-23T09:16:36;3.42;;;1.58;;
59273;SDS011;45044;41.572;24.730;2024-03-23T09:19:02;3.85;;;1.98;;
59273;SDS011;45044;41.572;24.730;2024-03-23T09:21:28;3.83;;;2.03;;
59273;SDS011;45044;41.572;24.730;2024-03-23T09:23:57;3.00;;;1.98;;
59273;SDS011;45044;41.572;24.730;2024-03-23T09:26:23;3.50;;;2.22;;
59273;SDS011;45044;41.572;24.730;2024-03-23T09:28:49;3.40;;;2.22;;
59273;SDS011;45044;41.572;24.730;2024-03-23T09:31:15;3.05;;;1.95;;
59273;SDS011;45044;41.572;24.730;2024-03-23T09:33:41;3.92;;;2.03;;
59273;SDS011;45044;41.572;24.730;2024-03-23T09:36:08;5.15;;;2.15;;
59273;SDS011;45044;41.572;24.730;2024-03-23T09:38:34;4.75;;;2.22;;
59273;SDS011;45044;41.572;24.730;2024-03-23T09:41:00;4.25;;;2.03;;
59273;SDS011;45044;41.572;24.730;2024-03-23T09:43:26;4.70;;;2.00;;
59273;SDS011;45044;41.572;24.730;2024-03-23T09:45:52;6.05;;;2.95;;
59273;SDS011;45044;41.572;24.730;2024-03-23T09:48:18;5.35;;;2.25;;
59273;SDS011;45044;41.572;24.730;2024-03-23T09:50:45;5.05;;;2.88;;
59273;SDS011;45044;41.572;24.730;2024-03-23T09:53:11;3.05;;;1.92;;
59273;SDS011;45044;41.572;24.730;2024-03-23T09:55:42;8.32;;;3.05;;
59273;SDS011;45044;41.572;24.730;2024-03-23T09:58:12;8.20;;;3.10;;
59273;SDS011;45044;41.572;24.730;2024-03-23T10:00:39;7.07;;;2.92;;
59273;SDS011;45044;41.572;24.730;2024-03-23T10:03:05;6.18;;;2.38;;
59273;SDS011;45044;41.572;24.730;2024-03-23T10:05:32;4.70;;;2.28;;
59273;SDS011;45044;41.572;24.730;2024-03-23T10:10:40;5.53;;;3.08;;
59273;SDS011;45044;41.572;24.730;2024-03-23T10:13:06;4.22;;;2.30;;
59273;SDS011;45044;41.572;24.730;2024-03-23T10:15:35;6.78;;;2.97;;
59273;SDS011;45044;41.572;24.730;2024-03-23T10:18:18;4.72;;;2.60;;
59273;SDS011;45044;41.572;24.730;2024-03-23T10:20:47;5.90;;;2.38;;
59273;SDS011;45044;41.572;24.730;2024-03-23T10:23:17;9.25;;;3.60;;
59273;SDS011;45044;41.572;24.730;2024-03-23T10:25:43;6.53;;;3.42;;
59273;SDS011;45044;41.572;24.730;2024-03-23T10:28:09;6.00;;;2.75;;
59273;SDS011;45044;41.572;24.730;2024-03-23T10:30:35;4.35;;;2.22;;
59273;SDS011;45044;41.572;24.730;2024-03-23T10:33:10;4.13;;;2.17;;
59273;SDS011;45044;41.572;24.730;2024-03-23T10:35:37;4.55;;;2.78;;
59273;SDS011;45044;41.572;24.730;2024-03-23T10:38:07;5.80;;;3.30;;
59273;SDS011;45044;41.572;24.730;2024-03-23T10:40:36;5.00;;;2.90;;
59273;SDS011;45044;41.572;24.730;2024-03-23T10:43:03;4.85;;;2.50;;
59273;SDS011;45044;41.572;24.730;2024-03-23T10:45:29;4.47;;;2.45;;
59273;SDS011;45044;41.572;24.730;2024-03-23T10:48:02;4.40;;;1.90;;
59273;SDS011;45044;41.572;24.730;2024-03-23T10:50:29;10.25;;;3.75;;
59273;SDS011;45044;41.572;24.730;2024-03-23T10:52:57;4.65;;;2.30;;
59273;SDS011;45044;41.572;24.730;2024-03-23T10:55:25;6.35;;;3.03;;
59273;SDS011;45044;41.572;24.730;2024-03-23T10:57:52;5.07;;;2.40;;
59273;SDS011;45044;41.572;24.730;2024-03-23T11:00:20;4.15;;;2.30;;
59273;SDS011;45044;41.572;24.730;2024-03-23T11:02:48;5.45;;;2.13;;
59273;SDS011;45044;41.572;24.730;2024-03-23T11:07:50;5.53;;;2.63;;
59273;SDS011;45044;41.572;24.730;2024-03-23T11:10:29;3.78;;;1.65;;
59273;SDS011;45044;41.572;24.730;2024-03-23T11:12:57;6.15;;;1.85;;
59273;SDS011;45044;41.572;24.730;2024-03-23T11:15:23;5.70;;;2.00;;
59273;SDS011;45044;41.572;24.730;2024-03-23T11:18:02;2.85;;;1.55;;
59273;SDS011;45044;41.572;24.730;2024-03-23T11:20:31;3.13;;;1.70;;
59273;SDS011;45044;41.572;24.730;2024-03-23T11:22:57;5.28;;;2.08;;
59273;SDS011;45044;41.572;24.730;2024-03-23T11:25:23;4.38;;;1.70;;
59273;SDS011;45044;41.572;24.730;2024-03-23T11:27:51;5.15;;;2.13;;
59273;SDS011;45044;41.572;24.730;2024-03-23T11:30:18;3.83;;;1.75;;
59273;SDS011;45044;41.572;24.730;2024-03-23T11:32:47;3.53;;;1.50;;
59273;SDS011;45044;41.572;24.730;2024-03-23T11:35:48;3.78;;;2.10;;
59273;SDS011;45044;41.572;24.730;2024-03-23T11:40:40;6.40;;;2.60;;
59273;SDS011;45044;41.572;24.730;2024-03-23T11:43:17;5.80;;;2.35;;
59273;SDS011;45044;41.572;24.730;2024-03-23T11:45:44;3.33;;;1.63;;
59273;SDS011;45044;41.572;24.730;2024-03-23T11:48:18;5.55;;;2.33;;
59273;SDS011;45044;41.572;24.730;2024-03-23T11:50:45;6.32;;;2.60;;
59273;SDS011;45044;41.572;24.730;2024-03-23T11:53:13;5.03;;;2.30;;
59273;SDS011;45044;41.572;24.730;2024-03-23T11:55:56;5.80;;;2.53;;
59273;SDS011;45044;41.572;24.730;2024-03-23T11:58:28;3.97;;;2.03;;
59273;SDS011;45044;41.572;24.730;2024-03-23T12:03:30;5.07;;;2.45;;
59273;SDS011;45044;41.572;24.730;2024-03-23T12:06:00;7.50;;;3.88;;
59273;SDS011;45044;41.572;24.730;2024-03-23T12:08:31;4.03;;;2.30;;
59273;SDS011;45044;41.572;24.730;2024-03-23T12:13:33;3.72;;;2.13;;
59273;SDS011;45044;41.572;24.730;2024-03-23T12:18:55;4.40;;;1.90;;
59273;SDS011;45044;41.572;24.730;2024-03-23T12:21:31;4.40;;;2.08;;
59273;SDS011;45044;41.572;24.730;2024-03-23T12:23:56;3.15;;;1.85;;
59273;SDS011;45044;41.572;24.730;2024-03-23T12:26:24;2.38;;;1.58;;
59273;SDS011;45044;41.572;24.730;2024-03-23T12:28:52;3.75;;;2.00;;
59273;SDS011;45044;41.572;24.730;2024-03-23T12:31:18;6.78;;;2.88;;
59273;SDS011;45044;41.572;24.730;2024-03-23T12:33:43;9.35;;;3.42;;
59273;SDS011;45044;41.572;24.730;2024-03-23T12:36:10;7.28;;;2.78;;
59273;SDS011;45044;41.572;24.730;2024-03-23T12:38:35;3.67;;;2.17;;
59273;SDS011;45044;41.572;24.730;2024-03-23T12:41:01;3.78;;;2.00;;
59273;SDS011;45044;41.572;24.730;2024-03-23T12:43:27;6.90;;;2.65;;
59273;SDS011;45044;41.572;24.730;2024-03-23T12:45:53;5.10;;;2.33;;
59273;SDS011;45044;41.572;24.730;2024-03-23T12:48:18;6.68;;;2.85;;
59273;SDS011;45044;41.572;24.730;2024-03-23T12:50:48;3.22;;;1.83;;
59273;SDS011;45044;41.572;24.730;2024-03-23T12:53:14;3.80;;;1.80;;
59273;SDS011;45044;41.572;24.730;2024-03-23T12:55:39;3.63;;;2.00;;
59273;SDS011;45044;41.572;24.730;2024-03-23T12:58:05;2.80;;;1.80;;
59273;SDS011;45044;41.572;24.730;2024-03-23T13:00:30;5.45;;;2.80;;
59273;SDS011;45044;41.572;24.730;2024-03-23T13:02:56;5.55;;;2.92;;
59273;SDS011;45044;41.572;24.730;2024-03-23T13:05:22;6.63;;;3.05;;
59273;SDS011;45044;41.572;24.730;2024-03-23T13:07:47;4.25;;;2.45;;
59273;SDS011;45044;41.572;24.730;2024-03-23T13:10:13;7.72;;;2.60;;
59273;SDS011;45044;41.572;24.730;2024-03-23T13:12:40;5.68;;;2.85;;
59273;SDS011;45044;41.572;24.730;2024-03-23T13:15:05;6.95;;;3.20;;
59273;SDS011;45044;41.572;24.730;2024-03-23T13:17:31;7.80;;;3.33;;
59273;SDS011;45044;41.572;24.730;2024-03-23T13:19:57;10.57;;;4.78;;
59273;SDS011;45044;41.572;24.730;2024-03-23T13:22:22;8.32;;;4.15;;
59273;SDS011;45044;41.572;24.730;2024-03-23T13:24:48;7.35;;;5.80;;
59273;SDS011;45044;41.572;24.730;2024-03-23T13:27:14;7.00;;;4.68;;
59273;SDS011;45044;41.572;24.730;2024-03-23T13:29:40;7.93;;;4.53;;
59273;SDS011;45044;41.572;24.730;2024-03-23T13:32:06;4.35;;;2.60;;
59273;SDS011;45044;41.572;24.730;2024-03-23T13:34:32;6.57;;;3.55;;
59273;SDS011;45044;41.572;24.730;2024-03-23T13:36:58;9.50;;;4.60;;
59273;SDS011;45044;41.572;24.730;2024-03-23T13:39:25;9.60;;;4.90;;
59273;SDS011;45044;41.572;24.730;2024-03-23T13:41:53;7.60;;;4.47;;
59273;SDS011;45044;41.572;24.730;2024-03-23T13:44:20;9.02;;;5.03;;
59273;SDS011;45044;41.572;24.730;2024-03-23T13:46:46;10.65;;;4.65;;
59273;SDS011;45044;41.572;24.730;2024-03-23T13:51:59;8.77;;;3.92;;
59273;SDS011;45044;41.572;24.730;2024-03-23T13:54:26;6.85;;;3.03;;
59273;SDS011;45044;41.572;24.730;2024-03-23T13:56:52;7.78;;;4.43;;
59273;SDS011;45044;41.572;24.730;2024-03-23T13:59:22;7.50;;;3.70;;
59273;SDS011;45044;41.572;24.730;2024-03-23T14:01:49;5.97;;;3.38;;
59273;SDS011;45044;41.572;24.730;2024-03-23T14:04:19;5.22;;;2.97;;
59273;SDS011;45044;41.572;24.730;2024-03-23T14:06:45;8.80;;;4.68;;
59273;SDS011;45044;41.572;24.730;2024-03-23T14:09:12;4.72;;;2.70;;
59273;SDS011;45044;41.572;24.730;2024-03-23T14:11:38;6.70;;;3.40;;
59273;SDS011;45044;41.572;24.730;2024-03-23T14:14:04;6.55;;;3.78;;
59273;SDS011;45044;41.572;24.730;2024-03-23T14:16:30;9.00;;;5.30;;
59273;SDS011;45044;41.572;24.730;2024-03-23T14:18:59;11.05;;;5.32;;
59273;SDS011;45044;41.572;24.730;2024-03-23T14:21:26;9.77;;;5.25;;
59273;SDS011;45044;41.572;24.730;2024-03-23T14:23:52;9.02;;;4.63;;
59273;SDS011;45044;41.572;24.730;2024-03-23T14:26:19;10.70;;;5.32;;
59273;SDS011;45044;41.572;24.730;2024-03-23T14:28:45;9.35;;;4.03;;
59273;SDS011;45044;41.572;24.730;2024-03-23T14:31:11;16.52;;;8.48;;
59273;SDS011;45044;41.572;24.730;2024-03-23T14:33:37;9.15;;;4.35;;
59273;SDS011;45044;41.572;24.730;2024-03-23T14:36:04;6.25;;;3.50;;
59273;SDS011;45044;41.572;24.730;2024-03-23T14:38:30;11.63;;;6.13;;
59273;SDS011;45044;41.572;24.730;2024-03-23T14:40:59;11.13;;;5.45;;
59273;SDS011;45044;41.572;24.730;2024-03-23T14:43:26;6.97;;;3.70;;
59273;SDS011;45044;41.572;24.730;2024-03-23T14:46:12;5.93;;;3.30;;
59273;SDS011;45044;41.572;24.730;2024-03-23T14:48:42;6.50;;;3.63;;
59273;SDS011;45044;41.572;24.730;2024-03-23T14:51:09;8.23;;;4.45;;
59273;SDS011;45044;41.572;24.730;2024-03-23T14:53:39;7.70;;;4.43;;
59273;SDS011;45044;41.572;24.730;2024-03-23T14:56:06;7.15;;;4.43;;
59273;SDS011;45044;41.572;24.730;2024-03-23T14:58:33;7.28;;;3.25;;
59273;SDS011;45044;41.572;24.730;2024-03-23T15:01:05;5.80;;;3.35;;
59273;SDS011;45044;41.572;24.730;2024-03-23T15:03:38;7.22;;;2.90;;
59273;SDS011;45044;41.572;24.730;2024-03-23T15:06:05;6.35;;;3.58;;
59273;SDS011;45044;41.572;24.730;2024-03-23T15:08:32;6.85;;;4.10;;
59273;SDS011;45044;41.572;24.730;2024-03-23T15:10:58;7.13;;;4.10;;
59273;SDS011;45044;41.572;24.730;2024-03-23T15:13:25;5.72;;;3.38;;
59273;SDS011;45044;41.572;24.730;2024-03-23T15:15:52;5.95;;;2.97;;
59273;SDS011;45044;41.572;24.730;2024-03-23T15:18:17;6.28;;;3.38;;
59273;SDS011;45044;41.572;24.730;2024-03-23T15:20:57;5.57;;;3.53;;
59273;SDS011;45044;41.572;24.730;2024-03-23T15:23:28;7.97;;;3.35;;
59273;SDS011;45044;41.572;24.730;2024-03-23T15:25:54;9.18;;;5.43;;
59273;SDS011;45044;41.572;24.730;2024-03-23T15:28:21;5.70;;;3.60;;
59273;SDS011;45044;41.572;24.730;2024-03-23T15:30:48;8.40;;;5.07;;
59273;SDS011;45044;41.572;24.730;2024-03-23T15:33:14;9.20;;;3.20;;
59273;SDS011;45044;41.572;24.730;2024-03-23T15:35:40;5.15;;;2.78;;